sensor_id;sensor_type;location;lat;lon;timestamp;P1;durP1;ratioP1;P2;durP2;ratioP2
24801;SDS011;12898;50.520;12.152;2023-07-24T00:02:09;9.07;;;4.50;;
24801;SDS011;12898;50.520;12.152;2023-07-24T00:04:35;6.85;;;3.80;;
24801;SDS011;12898;50.520;12.152;2023-07-24T00:07:00;6.85;;;3.90;;
24801;SDS011;12898;50.520;12.152;2023-07-24T00:09:26;8.10;;;3.65;;
24801;SDS011;12898;50.520;12.152;2023-07-24T00:11:52;6.43;;;3.63;;
24801;SDS011;12898;50.520;12.152;2023-07-24T00:14:17;7.05;;;3.97;;
24801;SDS011;12898;50.520;12.152;2023-07-24T00:16:43;7.18;;;4.03;;
24801;SDS011;12898;50.520;12.152;2023-07-24T00:19:09;9.48;;;3.60;;
24801;SDS011;12898;50.520;12.152;2023-07-24T00:21:34;7.38;;;3.95;;
24801;SDS011;12898;50.520;12.152;2023-07-24T00:24:00;9.70;;;4.15;;
24801;SDS011;12898;50.520;12.152;2023-07-24T00:26:26;9.80;;;4.28;;
24801;SDS011;12898;50.520;12.152;2023-07-24T00:28:51;7.50;;;3.55;;
24801;SDS011;12898;50.520;12.152;2023-07-24T00:31:17;7.68;;;3.97;;
24801;SDS011;12898;50.520;12.152;2023-07-24T00:33:43;6.88;;;3.88;;
24801;SDS011;12898;50.520;12.152;2023-07-24T00:36:08;6.95;;;3.80;;
24801;SDS011;12898;50.520;12.152;2023-07-24T00:38:34;6.47;;;3.83;;
24801;SDS011;12898;50.520;12.152;2023-07-24T00:41:00;6.53;;;3.60;;
24801;SDS011;12898;50.520;12.152;2023-07-24T00:43:25;6.72;;;4.00;;
24801;SDS011;12898;50.520;12.152;2023-07-24T00:45:51;7.88;;;4.05;;
24801;SDS011;12898;50.520;12.152;2023-07-24T00:48:18;10.82;;;3.85;;
24801;SDS011;12898;50.520;12.152;2023-07-24T00:50:44;7.32;;;3.90;;
24801;SDS011;12898;50.520;12.152;2023-07-24T00:53:13;10.85;;;4.45;;
24801;SDS011;12898;50.520;12.152;2023-07-24T00:55:42;7.45;;;4.07;;
24801;SDS011;12898;50.520;12.152;2023-07-24T00:58:09;6.95;;;3.80;;
24801;SDS011;12898;50.520;12.152;2023-07-24T01:00:37;7.25;;;3.83;;
24801;SDS011;12898;50.520;12.152;2023-07-24T01:03:04;8.27;;;4.35;;
24801;SDS011;12898;50.520;12.152;2023-07-24T01:05:30;7.35;;;4.00;;
24801;SDS011;12898;50.520;12.152;2023-07-24T01:07:55;6.90;;;4.03;;
24801;SDS011;12898;50.520;12.152;2023-07-24T01:10:22;6.50;;;3.83;;
24801;SDS011;12898;50.520;12.152;2023-07-24T01:12:58;8.38;;;4.10;;
24801;SDS011;12898;50.520;12.152;2023-07-24T01:18:11;7.60;;;3.97;;
24801;SDS011;12898;50.520;12.152;2023-07-24T01:20:48;7.90;;;4.30;;
24801;SDS011;12898;50.520;12.152;2023-07-24T01:26:09;8.57;;;4.50;;
24801;SDS011;12898;50.520;12.152;2023-07-24T01:28:35;7.93;;;4.10;;
24801;SDS011;12898;50.520;12.152;2023-07-24T01:31:01;7.57;;;4.13;;
24801;SDS011;12898;50.520;12.152;2023-07-24T01:33:27;9.43;;;4.63;;
24801;SDS011;12898;50.520;12.152;2023-07-24T01:35:54;7.55;;;4.18;;
24801;SDS011;12898;50.520;12.152;2023-07-24T01:38:26;7.97;;;4.45;;
24801;SDS011;12898;50.520;12.152;2023-07-24T01:40:56;9.93;;;4.85;;
24801;SDS011;12898;50.520;12.152;2023-07-24T01:43:22;9.20;;;4.30;;
24801;SDS011;12898;50.520;12.152;2023-07-24T01:45:51;8.50;;;4.07;;
24801;SDS011;12898;50.520;12.152;2023-07-24T01:48:16;8.65;;;4.50;;
24801;SDS011;12898;50.520;12.152;2023-07-24T01:50:42;7.53;;;4.30;;
24801;SDS011;12898;50.520;12.152;2023-07-24T01:53:08;9.60;;;4.43;;
24801;SDS011;12898;50.520;12.152;2023-07-24T01:55:34;9.70;;;5.75;;
24801;SDS011;12898;50.520;12.152;2023-07-24T01:58:00;10.65;;;4.90;;
24801;SDS011;12898;50.520;12.152;2023-07-24T02:00:26;7.80;;;4.53;;
24801;SDS011;12898;50.520;12.152;2023-07-24T02:02:51;8.75;;;5.05;;
24801;SDS011;12898;50.520;12.152;2023-07-24T02:05:17;9.35;;;5.07;;
24801;SDS011;12898;50.520;12.152;2023-07-24T02:07:43;9.00;;;4.68;;
24801;SDS011;12898;50.520;12.152;2023-07-24T02:10:08;9.25;;;4.45;;
24801;SDS011;12898;50.520;12.152;2023-07-24T02:12:34;10.88;;;5.13;;
24801;SDS011;12898;50.520;12.152;2023-07-24T02:15:00;8.60;;;4.38;;
24801;SDS011;12898;50.520;12.152;2023-07-24T02:17:26;8.95;;;4.82;;
24801;SDS011;12898;50.520;12.152;2023-07-24T02:19:52;10.60;;;4.97;;
24801;SDS011;12898;50.520;12.152;2023-07-24T02:22:17;10.20;;;4.80;;
24801;SDS011;12898;50.520;12.152;2023-07-24T02:24:43;8.70;;;4.88;;
24801;SDS011;12898;50.520;12.152;2023-07-24T02:27:12;8.60;;;4.97;;
24801;SDS011;12898;50.520;12.152;2023-07-24T02:29:39;8.95;;;4.93;;
24801;SDS011;12898;50.520;12.152;2023-07-24T02:32:05;9.73;;;4.85;;
24801;SDS011;12898;50.520;12.152;2023-07-24T02:34:30;8.10;;;4.53;;
24801;SDS011;12898;50.520;12.152;2023-07-24T02:36:56;9.05;;;4.85;;
24801;SDS011;12898;50.520;12.152;2023-07-24T02:39:22;8.80;;;5.13;;
24801;SDS011;12898;50.520;12.152;2023-07-24T02:41:48;11.70;;;5.03;;
24801;SDS011;12898;50.520;12.152;2023-07-24T02:44:14;8.85;;;4.80;;
24801;SDS011;12898;50.520;12.152;2023-07-24T02:46:39;9.43;;;4.82;;
24801;SDS011;12898;50.520;12.152;2023-07-24T02:49:05;8.00;;;5.00;;
24801;SDS011;12898;50.520;12.152;2023-07-24T02:51:31;10.38;;;4.88;;
24801;SDS011;12898;50.520;12.152;2023-07-24T02:53:57;8.10;;;4.40;;
24801;SDS011;12898;50.520;12.152;2023-07-24T02:56:23;9.63;;;4.70;;
24801;SDS011;12898;50.520;12.152;2023-07-24T02:58:49;10.55;;;5.07;;
24801;SDS011;12898;50.520;12.152;2023-07-24T03:01:14;10.07;;;4.57;;
24801;SDS011;12898;50.520;12.152;2023-07-24T03:03:40;10.93;;;5.25;;
24801;SDS011;12898;50.520;12.152;2023-07-24T03:06:06;9.57;;;4.95;;
24801;SDS011;12898;50.520;12.152;2023-07-24T03:08:32;9.80;;;5.20;;
24801;SDS011;12898;50.520;12.152;2023-07-24T03:10:59;10.50;;;5.43;;
24801;SDS011;12898;50.520;12.152;2023-07-24T03:13:24;9.02;;;4.55;;
24801;SDS011;12898;50.520;12.152;2023-07-24T03:15:53;13.07;;;5.72;;
24801;SDS011;12898;50.520;12.152;2023-07-24T03:18:20;10.35;;;4.90;;
24801;SDS011;12898;50.520;12.152;2023-07-24T03:20:46;10.55;;;5.30;;
24801;SDS011;12898;50.520;12.152;2023-07-24T03:23:12;9.48;;;4.88;;
24801;SDS011;12898;50.520;12.152;2023-07-24T03:25:38;9.82;;;5.10;;
24801;SDS011;12898;50.520;12.152;2023-07-24T03:28:04;10.23;;;5.35;;
24801;SDS011;12898;50.520;12.152;2023-07-24T03:30:29;10.90;;;5.13;;
24801;SDS011;12898;50.520;12.152;2023-07-24T03:32:55;12.43;;;5.20;;
24801;SDS011;12898;50.520;12.152;2023-07-24T03:35:21;9.57;;;5.53;;
24801;SDS011;12898;50.520;12.152;2023-07-24T03:37:47;10.13;;;4.93;;
24801;SDS011;12898;50.520;12.152;2023-07-24T03:40:13;10.32;;;5.15;;
24801;SDS011;12898;50.520;12.152;2023-07-24T03:42:39;11.43;;;4.95;;
24801;SDS011;12898;50.520;12.152;2023-07-24T03:45:05;10.57;;;5.15;;
24801;SDS011;12898;50.520;12.152;2023-07-24T03:47:31;8.57;;;4.82;;
24801;SDS011;12898;50.520;12.152;2023-07-24T03:49:57;11.90;;;5.10;;
24801;SDS011;12898;50.520;12.152;2023-07-24T03:52:23;8.77;;;4.95;;
24801;SDS011;12898;50.520;12.152;2023-07-24T03:54:48;11.20;;;5.80;;
24801;SDS011;12898;50.520;12.152;2023-07-24T03:57:15;12.13;;;5.30;;
24801;SDS011;12898;50.520;12.152;2023-07-24T03:59:41;10.48;;;5.63;;
24801;SDS011;12898;50.520;12.152;2023-07-24T04:02:06;9.75;;;4.90;;
24801;SDS011;12898;50.520;12.152;2023-07-24T04:04:32;10.05;;;5.20;;
24801;SDS011;12898;50.520;12.152;2023-07-24T04:06:58;11.93;;;5.45;;
24801;SDS011;12898;50.520;12.152;2023-07-24T04:09:24;10.85;;;5.07;;
24801;SDS011;12898;50.520;12.152;2023-07-24T04:11:50;9.75;;;5.38;;
24801;SDS011;12898;50.520;12.152;2023-07-24T04:14:15;12.48;;;4.93;;
24801;SDS011;12898;50.520;12.152;2023-07-24T04:16:41;10.20;;;5.53;;
24801;SDS011;12898;50.520;12.152;2023-07-24T04:19:07;11.48;;;5.43;;
24801;SDS011;12898;50.520;12.152;2023-07-24T04:21:33;10.40;;;4.90;;
24801;SDS011;12898;50.520;12.152;2023-07-24T04:23:59;10.50;;;5.63;;
24801;SDS011;12898;50.520;12.152;2023-07-24T04:26:25;9.70;;;5.15;;
24801;SDS011;12898;50.520;12.152;2023-07-24T04:28:50;10.02;;;4.95;;
24801;SDS011;12898;50.520;12.152;2023-07-24T04:31:16;11.70;;;5.43;;
24801;SDS011;12898;50.520;12.152;2023-07-24T04:33:42;10.15;;;4.85;;
24801;SDS011;12898;50.520;12.152;2023-07-24T04:36:07;14.25;;;5.35;;
24801;SDS011;12898;50.520;12.152;2023-07-24T04:38:33;10.10;;;5.53;;
24801;SDS011;12898;50.520;12.152;2023-07-24T04:41:01;9.25;;;5.20;;
24801;SDS011;12898;50.520;12.152;2023-07-24T04:43:28;12.52;;;5.63;;
24801;SDS011;12898;50.520;12.152;2023-07-24T04:45:54;16.10;;;5.40;;
24801;SDS011;12898;50.520;12.152;2023-07-24T04:48:20;13.38;;;5.30;;
24801;SDS011;12898;50.520;12.152;2023-07-24T04:50:45;17.35;;;5.45;;
24801;SDS011;12898;50.520;12.152;2023-07-24T04:53:11;10.18;;;5.32;;
24801;SDS011;12898;50.520;12.152;2023-07-24T04:55:37;21.27;;;6.72;;
24801;SDS011;12898;50.520;12.152;2023-07-24T04:58:02;12.45;;;5.43;;
24801;SDS011;12898;50.520;12.152;2023-07-24T05:00:28;12.45;;;5.45;;
24801;SDS011;12898;50.520;12.152;2023-07-24T05:02:54;10.20;;;5.25;;
24801;SDS011;12898;50.520;12.152;2023-07-24T05:05:19;11.10;;;5.13;;
24801;SDS011;12898;50.520;12.152;2023-07-24T05:07:45;11.95;;;5.72;;
24801;SDS011;12898;50.520;12.152;2023-07-24T05:10:11;12.68;;;5.43;;
24801;SDS011;12898;50.520;12.152;2023-07-24T05:12:40;10.32;;;4.95;;
24801;SDS011;12898;50.520;12.152;2023-07-24T05:15:07;11.13;;;5.70;;
24801;SDS011;12898;50.520;12.152;2023-07-24T05:17:33;9.60;;;5.22;;
24801;SDS011;12898;50.520;12.152;2023-07-24T05:19:59;14.32;;;6.03;;
24801;SDS011;12898;50.520;12.152;2023-07-24T05:22:24;12.88;;;5.60;;
24801;SDS011;12898;50.520;12.152;2023-07-24T05:24:50;11.68;;;5.60;;
24801;SDS011;12898;50.520;12.152;2023-07-24T05:27:16;10.90;;;5.20;;
24801;SDS011;12898;50.520;12.152;2023-07-24T05:29:41;10.65;;;5.65;;
24801;SDS011;12898;50.520;12.152;2023-07-24T05:32:07;10.57;;;5.32;;
24801;SDS011;12898;50.520;12.152;2023-07-24T05:34:33;10.10;;;5.20;;
24801;SDS011;12898;50.520;12.152;2023-07-24T05:36:59;10.77;;;5.50;;
24801;SDS011;12898;50.520;12.152;2023-07-24T05:39:24;11.80;;;5.90;;
24801;SDS011;12898;50.520;12.152;2023-07-24T05:41:50;12.15;;;5.95;;
24801;SDS011;12898;50.520;12.152;2023-07-24T05:44:16;11.70;;;5.90;;
24801;SDS011;12898;50.520;12.152;2023-07-24T05:46:41;10.77;;;5.97;;
24801;SDS011;12898;50.520;12.152;2023-07-24T05:49:07;12.23;;;6.32;;
24801;SDS011;12898;50.520;12.152;2023-07-24T05:51:33;13.98;;;6.78;;
24801;SDS011;12898;50.520;12.152;2023-07-24T05:53:58;14.75;;;6.38;;
24801;SDS011;12898;50.520;12.152;2023-07-24T05:56:24;13.15;;;6.45;;
24801;SDS011;12898;50.520;12.152;2023-07-24T05:58:50;14.75;;;7.38;;
24801;SDS011;12898;50.520;12.152;2023-07-24T06:01:15;12.13;;;6.63;;
24801;SDS011;12898;50.520;12.152;2023-07-24T06:03:41;11.88;;;6.80;;
24801;SDS011;12898;50.520;12.152;2023-07-24T06:06:07;14.35;;;6.70;;
24801;SDS011;12898;50.520;12.152;2023-07-24T06:08:32;12.65;;;6.57;;
24801;SDS011;12898;50.520;12.152;2023-07-24T06:10:58;12.77;;;7.25;;
24801;SDS011;12898;50.520;12.152;2023-07-24T06:13:24;12.45;;;6.65;;
24801;SDS011;12898;50.520;12.152;2023-07-24T06:15:50;15.50;;;6.97;;
24801;SDS011;12898;50.520;12.152;2023-07-24T06:18:17;14.95;;;6.88;;
24801;SDS011;12898;50.520;12.152;2023-07-24T06:20:43;14.00;;;7.20;;
24801;SDS011;12898;50.520;12.152;2023-07-24T06:23:09;12.65;;;6.80;;
24801;SDS011;12898;50.520;12.152;2023-07-24T06:25:35;12.10;;;6.85;;
24801;SDS011;12898;50.520;12.152;2023-07-24T06:28:00;12.70;;;7.32;;
24801;SDS011;12898;50.520;12.152;2023-07-24T06:30:26;11.88;;;6.53;;
24801;SDS011;12898;50.520;12.152;2023-07-24T06:32:52;12.25;;;6.88;;
24801;SDS011;12898;50.520;12.152;2023-07-24T06:35:17;11.18;;;6.38;;
24801;SDS011;12898;50.520;12.152;2023-07-24T06:37:43;15.38;;;6.45;;
24801;SDS011;12898;50.520;12.152;2023-07-24T06:40:09;11.40;;;6.53;;
24801;SDS011;12898;50.520;12.152;2023-07-24T06:42:35;15.65;;;6.78;;
24801;SDS011;12898;50.520;12.152;2023-07-24T06:45:01;12.30;;;6.95;;
24801;SDS011;12898;50.520;12.152;2023-07-24T06:47:27;13.45;;;6.93;;
24801;SDS011;12898;50.520;12.152;2023-07-24T06:49:53;11.30;;;6.47;;
24801;SDS011;12898;50.520;12.152;2023-07-24T06:52:18;11.93;;;6.60;;
24801;SDS011;12898;50.520;12.152;2023-07-24T06:54:44;12.45;;;7.03;;
24801;SDS011;12898;50.520;12.152;2023-07-24T06:57:10;14.98;;;7.05;;
24801;SDS011;12898;50.520;12.152;2023-07-24T06:59:35;13.50;;;6.07;;
24801;SDS011;12898;50.520;12.152;2023-07-24T07:02:01;12.63;;;6.97;;
24801;SDS011;12898;50.520;12.152;2023-07-24T07:04:27;13.18;;;6.60;;
24801;SDS011;12898;50.520;12.152;2023-07-24T07:06:52;15.15;;;6.72;;
24801;SDS011;12898;50.520;12.152;2023-07-24T07:09:18;12.48;;;6.60;;
24801;SDS011;12898;50.520;12.152;2023-07-24T07:11:44;13.43;;;6.45;;
24801;SDS011;12898;50.520;12.152;2023-07-24T07:14:10;14.50;;;7.07;;
24801;SDS011;12898;50.520;12.152;2023-07-24T07:16:35;12.35;;;6.85;;
24801;SDS011;12898;50.520;12.152;2023-07-24T07:19:01;14.60;;;7.03;;
24801;SDS011;12898;50.520;12.152;2023-07-24T07:21:27;12.43;;;6.45;;
24801;SDS011;12898;50.520;12.152;2023-07-24T07:23:53;13.32;;;6.70;;
24801;SDS011;12898;50.520;12.152;2023-07-24T07:26:19;13.80;;;6.10;;
24801;SDS011;12898;50.520;12.152;2023-07-24T07:28:45;12.70;;;6.63;;
24801;SDS011;12898;50.520;12.152;2023-07-24T07:31:11;13.18;;;6.25;;
24801;SDS011;12898;50.520;12.152;2023-07-24T07:33:36;11.35;;;6.38;;
24801;SDS011;12898;50.520;12.152;2023-07-24T07:36:02;11.18;;;6.45;;
24801;SDS011;12898;50.520;12.152;2023-07-24T07:38:31;11.57;;;6.25;;
24801;SDS011;12898;50.520;12.152;2023-07-24T07:40:57;10.77;;;6.40;;
24801;SDS011;12898;50.520;12.152;2023-07-24T07:43:23;11.00;;;6.18;;
24801;SDS011;12898;50.520;12.152;2023-07-24T07:45:49;13.10;;;6.28;;
24801;SDS011;12898;50.520;12.152;2023-07-24T07:48:14;10.20;;;5.68;;
24801;SDS011;12898;50.520;12.152;2023-07-24T07:50:40;9.68;;;5.47;;
24801;SDS011;12898;50.520;12.152;2023-07-24T07:53:06;10.63;;;6.15;;
24801;SDS011;12898;50.520;12.152;2023-07-24T07:55:32;9.98;;;5.35;;
24801;SDS011;12898;50.520;12.152;2023-07-24T07:57:57;8.75;;;4.95;;
24801;SDS011;12898;50.520;12.152;2023-07-24T08:00:23;10.43;;;5.55;;
24801;SDS011;12898;50.520;12.152;2023-07-24T08:02:49;10.02;;;5.45;;
24801;SDS011;12898;50.520;12.152;2023-07-24T08:05:14;11.00;;;4.97;;
24801;SDS011;12898;50.520;12.152;2023-07-24T08:07:40;8.02;;;4.60;;
24801;SDS011;12898;50.520;12.152;2023-07-24T08:10:06;9.85;;;5.35;;
24801;SDS011;12898;50.520;12.152;2023-07-24T08:12:32;9.27;;;4.68;;
24801;SDS011;12898;50.520;12.152;2023-07-24T08:14:58;7.80;;;4.13;;
24801;SDS011;12898;50.520;12.152;2023-07-24T08:17:24;9.30;;;4.70;;
24801;SDS011;12898;50.520;12.152;2023-07-24T08:19:49;8.25;;;4.72;;
24801;SDS011;12898;50.520;12.152;2023-07-24T08:22:15;10.60;;;5.00;;
24801;SDS011;12898;50.520;12.152;2023-07-24T08:24:41;9.95;;;4.60;;
24801;SDS011;12898;50.520;12.152;2023-07-24T08:27:06;10.57;;;5.63;;
24801;SDS011;12898;50.520;12.152;2023-07-24T08:29:32;9.95;;;5.22;;
24801;SDS011;12898;50.520;12.152;2023-07-24T08:31:59;10.13;;;5.53;;
24801;SDS011;12898;50.520;12.152;2023-07-24T08:34:25;12.63;;;6.22;;
24801;SDS011;12898;50.520;12.152;2023-07-24T08:36:51;12.43;;;6.00;;
24801;SDS011;12898;50.520;12.152;2023-07-24T08:39:16;12.55;;;6.18;;
24801;SDS011;12898;50.520;12.152;2023-07-24T08:41:42;12.00;;;6.68;;
24801;SDS011;12898;50.520;12.152;2023-07-24T08:44:08;12.10;;;6.50;;
24801;SDS011;12898;50.520;12.152;2023-07-24T08:46:37;12.18;;;6.78;;
24801;SDS011;12898;50.520;12.152;2023-07-24T08:49:06;11.52;;;7.03;;
24801;SDS011;12898;50.520;12.152;2023-07-24T08:51:41;14.88;;;7.40;;
24801;SDS011;12898;50.520;12.152;2023-07-24T08:54:07;14.50;;;7.22;;
24801;SDS011;12898;50.520;12.152;2023-07-24T08:56:35;16.23;;;7.43;;
24801;SDS011;12898;50.520;12.152;2023-07-24T08:59:02;13.85;;;7.13;;
24801;SDS011;12898;50.520;12.152;2023-07-24T09:01:28;16.50;;;8.05;;
24801;SDS011;12898;50.520;12.152;2023-07-24T09:03:53;15.85;;;7.22;;
24801;SDS011;12898;50.520;12.152;2023-07-24T09:06:19;14.75;;;7.82;;
24801;SDS011;12898;50.520;12.152;2023-07-24T09:08:45;15.52;;;7.30;;
24801;SDS011;12898;50.520;12.152;2023-07-24T09:11:12;14.00;;;7.50;;
24801;SDS011;12898;50.520;12.152;2023-07-24T09:13:41;12.23;;;6.90;;
24801;SDS011;12898;50.520;12.152;2023-07-24T09:16:08;12.70;;;7.00;;
24801;SDS011;12898;50.520;12.152;2023-07-24T09:18:40;13.13;;;7.00;;
24801;SDS011;12898;50.520;12.152;2023-07-24T09:21:08;12.50;;;7.18;;
24801;SDS011;12898;50.520;12.152;2023-07-24T09:23:36;14.00;;;6.90;;
24801;SDS011;12898;50.520;12.152;2023-07-24T09:26:05;11.52;;;6.97;;
24801;SDS011;12898;50.520;12.152;2023-07-24T09:28:32;12.65;;;7.30;;
24801;SDS011;12898;50.520;12.152;2023-07-24T09:30:59;12.60;;;7.43;;
24801;SDS011;12898;50.520;12.152;2023-07-24T09:36:03;14.02;;;7.10;;
24801;SDS011;12898;50.520;12.152;2023-07-24T09:38:33;13.85;;;6.90;;
24801;SDS011;12898;50.520;12.152;2023-07-24T09:41:00;11.85;;;6.78;;
24801;SDS011;12898;50.520;12.152;2023-07-24T09:43:28;14.07;;;7.85;;
24801;SDS011;12898;50.520;12.152;2023-07-24T09:45:54;11.63;;;6.57;;
24801;SDS011;12898;50.520;12.152;2023-07-24T09:48:22;14.10;;;6.82;;
24801;SDS011;12898;50.520;12.152;2023-07-24T09:50:55;12.57;;;6.85;;
24801;SDS011;12898;50.520;12.152;2023-07-24T09:56:10;11.10;;;6.55;;
24801;SDS011;12898;50.520;12.152;2023-07-24T09:58:37;12.07;;;7.03;;
24801;SDS011;12898;50.520;12.152;2023-07-24T10:01:06;11.88;;;6.93;;
24801;SDS011;12898;50.520;12.152;2023-07-24T10:03:54;15.20;;;7.32;;
24801;SDS011;12898;50.520;12.152;2023-07-24T10:06:20;11.85;;;6.47;;
24801;SDS011;12898;50.520;12.152;2023-07-24T10:08:46;14.40;;;7.80;;
24801;SDS011;12898;50.520;12.152;2023-07-24T10:11:13;13.20;;;7.15;;
24801;SDS011;12898;50.520;12.152;2023-07-24T10:13:40;11.63;;;7.05;;
24801;SDS011;12898;50.520;12.152;2023-07-24T10:16:06;11.93;;;7.45;;
24801;SDS011;12898;50.520;12.152;2023-07-24T10:18:33;13.10;;;8.00;;
24801;SDS011;12898;50.520;12.152;2023-07-24T10:21:01;14.90;;;7.65;;
24801;SDS011;12898;50.520;12.152;2023-07-24T10:23:42;11.98;;;7.22;;
24801;SDS011;12898;50.520;12.152;2023-07-24T10:26:11;12.20;;;6.85;;
24801;SDS011;12898;50.520;12.152;2023-07-24T10:28:37;13.07;;;6.63;;
24801;SDS011;12898;50.520;12.152;2023-07-24T10:31:08;11.65;;;7.20;;
24801;SDS011;12898;50.520;12.152;2023-07-24T10:33:48;14.43;;;7.70;;
24801;SDS011;12898;50.520;12.152;2023-07-24T10:36:17;13.15;;;7.43;;
24801;SDS011;12898;50.520;12.152;2023-07-24T10:38:52;15.35;;;7.82;;
24801;SDS011;12898;50.520;12.152;2023-07-24T10:41:20;14.15;;;7.32;;
24801;SDS011;12898;50.520;12.152;2023-07-24T10:43:47;19.58;;;8.43;;
24801;SDS011;12898;50.520;12.152;2023-07-24T10:46:15;20.52;;;8.48;;
24801;SDS011;12898;50.520;12.152;2023-07-24T10:48:44;15.27;;;7.72;;
24801;SDS011;12898;50.520;12.152;2023-07-24T10:51:12;14.45;;;8.10;;
24801;SDS011;12898;50.520;12.152;2023-07-24T10:53:41;14.25;;;8.15;;
24801;SDS011;12898;50.520;12.152;2023-07-24T10:56:12;17.25;;;7.45;;
24801;SDS011;12898;50.520;12.152;2023-07-24T10:58:38;13.75;;;6.65;;
24801;SDS011;12898;50.520;12.152;2023-07-24T11:01:06;12.18;;;6.80;;
24801;SDS011;12898;50.520;12.152;2023-07-24T11:03:35;14.70;;;7.22;;
24801;SDS011;12898;50.520;12.152;2023-07-24T11:06:02;13.10;;;6.88;;
24801;SDS011;12898;50.520;12.152;2023-07-24T11:08:29;14.55;;;7.53;;
24801;SDS011;12898;50.520;12.152;2023-07-24T11:10:56;17.17;;;8.25;;
24801;SDS011;12898;50.520;12.152;2023-07-24T11:13:24;15.18;;;7.70;;
24801;SDS011;12898;50.520;12.152;2023-07-24T11:15:51;14.55;;;7.85;;
24801;SDS011;12898;50.520;12.152;2023-07-24T11:18:17;14.50;;;7.53;;
24801;SDS011;12898;50.520;12.152;2023-07-24T11:20:48;14.32;;;7.13;;
24801;SDS011;12898;50.520;12.152;2023-07-24T11:23:16;14.18;;;7.25;;
24801;SDS011;12898;50.520;12.152;2023-07-24T11:25:42;12.48;;;7.13;;
24801;SDS011;12898;50.520;12.152;2023-07-24T11:28:09;13.88;;;7.80;;
24801;SDS011;12898;50.520;12.152;2023-07-24T11:30:38;13.93;;;7.78;;
24801;SDS011;12898;50.520;12.152;2023-07-24T11:33:04;13.15;;;7.25;;
24801;SDS011;12898;50.520;12.152;2023-07-24T11:35:34;14.43;;;7.57;;
24801;SDS011;12898;50.520;12.152;2023-07-24T11:38:01;16.20;;;7.63;;
24801;SDS011;12898;50.520;12.152;2023-07-24T11:40:35;14.02;;;6.95;;
24801;SDS011;12898;50.520;12.152;2023-07-24T11:43:19;12.10;;;6.68;;
24801;SDS011;12898;50.520;12.152;2023-07-24T11:45:47;13.35;;;6.53;;
24801;SDS011;12898;50.520;12.152;2023-07-24T11:48:17;12.90;;;6.50;;
24801;SDS011;12898;50.520;12.152;2023-07-24T11:50:48;12.55;;;7.18;;
24801;SDS011;12898;50.520;12.152;2023-07-24T11:53:18;12.77;;;6.95;;
24801;SDS011;12898;50.520;12.152;2023-07-24T11:55:45;11.63;;;6.28;;
24801;SDS011;12898;50.520;12.152;2023-07-24T11:58:13;12.95;;;6.43;;
24801;SDS011;12898;50.520;12.152;2023-07-24T12:00:40;12.40;;;6.10;;
24801;SDS011;12898;50.520;12.152;2023-07-24T12:03:06;12.18;;;5.63;;
24801;SDS011;12898;50.520;12.152;2023-07-24T12:05:39;11.70;;;6.32;;
24801;SDS011;12898;50.520;12.152;2023-07-24T12:08:06;13.25;;;6.40;;
24801;SDS011;12898;50.520;12.152;2023-07-24T12:10:35;10.15;;;5.75;;
24801;SDS011;12898;50.520;12.152;2023-07-24T12:13:02;11.75;;;6.75;;
24801;SDS011;12898;50.520;12.152;2023-07-24T12:15:28;12.88;;;7.07;;
24801;SDS011;12898;50.520;12.152;2023-07-24T12:17:54;12.60;;;6.70;;
24801;SDS011;12898;50.520;12.152;2023-07-24T12:20:21;11.38;;;6.60;;
24801;SDS011;12898;50.520;12.152;2023-07-24T12:22:47;13.52;;;6.97;;
24801;SDS011;12898;50.520;12.152;2023-07-24T12:25:13;12.32;;;6.97;;
24801;SDS011;12898;50.520;12.152;2023-07-24T12:27:40;14.02;;;7.50;;
24801;SDS011;12898;50.520;12.152;2023-07-24T12:30:07;13.35;;;6.72;;
24801;SDS011;12898;50.520;12.152;2023-07-24T12:32:33;11.93;;;6.85;;
24801;SDS011;12898;50.520;12.152;2023-07-24T12:34:59;12.93;;;7.20;;
24801;SDS011;12898;50.520;12.152;2023-07-24T12:37:25;12.38;;;6.97;;
24801;SDS011;12898;50.520;12.152;2023-07-24T12:39:51;11.57;;;6.55;;
24801;SDS011;12898;50.520;12.152;2023-07-24T12:42:17;11.30;;;6.60;;
24801;SDS011;12898;50.520;12.152;2023-07-24T12:44:43;12.40;;;6.40;;
24801;SDS011;12898;50.520;12.152;2023-07-24T12:47:09;9.57;;;5.60;;
24801;SDS011;12898;50.520;12.152;2023-07-24T12:49:36;10.30;;;5.75;;
24801;SDS011;12898;50.520;12.152;2023-07-24T12:52:02;12.45;;;6.68;;
24801;SDS011;12898;50.520;12.152;2023-07-24T12:54:29;11.43;;;6.93;;
24801;SDS011;12898;50.520;12.152;2023-07-24T12:56:55;12.40;;;7.45;;
24801;SDS011;12898;50.520;12.152;2023-07-24T12:59:20;15.15;;;7.07;;
24801;SDS011;12898;50.520;12.152;2023-07-24T13:01:46;11.52;;;6.72;;
24801;SDS011;12898;50.520;12.152;2023-07-24T13:04:12;11.60;;;6.65;;
24801;SDS011;12898;50.520;12.152;2023-07-24T13:06:38;12.98;;;7.20;;
24801;SDS011;12898;50.520;12.152;2023-07-24T13:09:05;11.77;;;7.03;;
24801;SDS011;12898;50.520;12.152;2023-07-24T13:11:32;13.82;;;8.00;;
24801;SDS011;12898;50.520;12.152;2023-07-24T13:13:58;11.93;;;7.22;;
24801;SDS011;12898;50.520;12.152;2023-07-24T13:16:24;13.35;;;7.90;;
24801;SDS011;12898;50.520;12.152;2023-07-24T13:18:49;12.40;;;7.63;;
24801;SDS011;12898;50.520;12.152;2023-07-24T13:21:15;12.77;;;7.55;;
24801;SDS011;12898;50.520;12.152;2023-07-24T13:23:41;12.82;;;7.65;;
24801;SDS011;12898;50.520;12.152;2023-07-24T13:26:07;15.27;;;8.07;;
24801;SDS011;12898;50.520;12.152;2023-07-24T13:28:37;13.05;;;8.05;;
24801;SDS011;12898;50.520;12.152;2023-07-24T13:31:14;13.23;;;7.82;;
24801;SDS011;12898;50.520;12.152;2023-07-24T13:33:41;12.85;;;8.25;;
24801;SDS011;12898;50.520;12.152;2023-07-24T13:36:07;12.38;;;7.63;;
24801;SDS011;12898;50.520;12.152;2023-07-24T13:38:33;13.95;;;8.45;;
24801;SDS011;12898;50.520;12.152;2023-07-24T13:40:59;13.10;;;7.63;;
24801;SDS011;12898;50.520;12.152;2023-07-24T13:43:26;15.07;;;8.27;;
24801;SDS011;12898;50.520;12.152;2023-07-24T13:45:52;13.00;;;8.02;;
24801;SDS011;12898;50.520;12.152;2023-07-24T13:48:18;13.70;;;9.02;;
24801;SDS011;12898;50.520;12.152;2023-07-24T13:50:44;13.63;;;8.40;;
24801;SDS011;12898;50.520;12.152;2023-07-24T13:53:09;12.75;;;8.45;;
24801;SDS011;12898;50.520;12.152;2023-07-24T13:55:35;15.10;;;7.88;;
24801;SDS011;12898;50.520;12.152;2023-07-24T13:58:01;15.20;;;8.00;;
24801;SDS011;12898;50.520;12.152;2023-07-24T14:00:26;13.15;;;7.95;;
24801;SDS011;12898;50.520;12.152;2023-07-24T14:02:52;13.73;;;8.15;;
24801;SDS011;12898;50.520;12.152;2023-07-24T14:05:18;14.60;;;7.88;;
24801;SDS011;12898;50.520;12.152;2023-07-24T14:07:44;14.82;;;8.02;;
24801;SDS011;12898;50.520;12.152;2023-07-24T14:10:10;13.52;;;8.10;;
24801;SDS011;12898;50.520;12.152;2023-07-24T14:12:36;12.65;;;8.15;;
24801;SDS011;12898;50.520;12.152;2023-07-24T14:15:02;13.48;;;8.25;;
24801;SDS011;12898;50.520;12.152;2023-07-24T14:17:28;13.20;;;8.10;;
24801;SDS011;12898;50.520;12.152;2023-07-24T14:19:54;12.90;;;7.97;;
24801;SDS011;12898;50.520;12.152;2023-07-24T14:22:19;14.93;;;8.18;;
24801;SDS011;12898;50.520;12.152;2023-07-24T14:24:45;12.52;;;7.55;;
24801;SDS011;12898;50.520;12.152;2023-07-24T14:27:11;13.27;;;7.60;;
24801;SDS011;12898;50.520;12.152;2023-07-24T14:29:38;14.15;;;7.97;;
24801;SDS011;12898;50.520;12.152;2023-07-24T14:32:04;13.32;;;8.23;;
24801;SDS011;12898;50.520;12.152;2023-07-24T14:34:31;12.20;;;7.03;;